Time;durP1;ratioP1;P1;durP2;ratioP2;P2;SDS_P1;SDS_P2;PMS_P1;PMS_P2;Temp;Humidity;BMP_temperature;BMP_pressure;BME280_temperature;BME280_humidity;BME280_pressure;Samples;Min_cycle;Max_cycle;Signal;HPM_P1;HPM_P2
2023/04/30 00:01:32;;;;;;;2.93;1.67;;;11.60;99.90;;;;;;5055986;28;20487;-88
2023/04/30 00:04:00;;;;;;;4.13;1.73;;;11.60;99.90;;;;;;5056938;28;20445;-88
2023/04/30 00:06:27;;;;;;;1.70;1.03;;;11.60;99.90;;;;;;5056331;28;20446;-88
2023/04/30 00:08:54;;;;;;;1.40;0.60;;;11.60;99.90;;;;;;5056283;28;20435;-88
2023/04/30 00:11:21;;;;;;;2.33;1.30;;;11.70;99.90;;;;;;5055963;28;20504;-88
2023/04/30 00:13:47;;;;;;;1.37;1.10;;;11.60;99.90;;;;;;5056161;28;20478;-88
2023/04/30 00:16:14;;;;;;;2.70;1.40;;;11.60;99.90;;;;;;5056246;28;20449;-88
2023/04/30 00:18:41;;;;;;;3.00;1.27;;;11.70;99.90;;;;;;5056218;28;20453;-89
2023/04/30 00:21:09;;;;;;;2.07;1.90;;;11.70;99.90;;;;;;5055602;28;20475;-88
2023/04/30 00:23:36;;;;;;;2.77;1.37;;;11.60;99.90;;;;;;5056089;28;20449;-88
2023/04/30 00:26:03;;;;;;;5.13;3.00;;;11.60;99.90;;;;;;5056005;28;20454;-88
2023/04/30 00:28:29;;;;;;;2.57;1.53;;;11.60;99.90;;;;;;5055975;28;20446;-88
2023/04/30 00:30:56;;;;;;;3.53;1.70;;;11.60;99.90;;;;;;5054863;28;20482;-88
2023/04/30 00:33:23;;;;;;;1.17;1.10;;;11.60;99.90;;;;;;5055479;28;21019;-89
2023/04/30 00:35:50;;;;;;;2.50;1.67;;;11.60;99.90;;;;;;5055651;28;20476;-88
2023/04/30 00:38:18;;;;;;;1.23;0.73;;;11.60;99.90;;;;;;5055654;28;20446;-88
2023/04/30 00:40:46;;;;;;;1.60;1.47;;;11.60;99.90;;;;;;5055605;28;20438;-88
2023/04/30 00:43:12;;;;;;;1.40;1.13;;;11.50;99.90;;;;;;5055567;28;20447;-88
2023/04/30 00:45:39;;;;;;;2.97;1.80;;;11.50;99.90;;;;;;5055574;28;20453;-88
2023/04/30 00:48:06;;;;;;;1.73;1.17;;;11.50;99.90;;;;;;5055631;28;20546;-88
2023/04/30 00:50:35;;;;;;;1.33;1.23;;;11.50;99.90;;;;;;5055760;28;20439;-88
2023/04/30 00:53:02;;;;;;;5.30;1.33;;;11.40;99.90;;;;;;5055177;28;20453;-88
2023/04/30 00:55:30;;;;;;;2.20;1.57;;;11.40;99.90;;;;;;5055923;28;20459;-88
2023/04/30 00:57:58;;;;;;;3.17;1.03;;;11.40;99.90;;;;;;5055465;28;20447;-88
2023/04/30 01:00:25;;;;;;;1.77;1.27;;;11.40;99.90;;;;;;5055365;28;20526;-88
2023/04/30 01:02:52;;;;;;;3.67;1.33;;;11.30;99.90;;;;;;5054700;28;20501;-88
2023/04/30 01:05:19;;;;;;;4.00;2.13;;;11.30;99.90;;;;;;5055273;28;20454;-88
2023/04/30 01:07:46;;;;;;;1.50;1.10;;;11.20;99.90;;;;;;5055175;28;20486;-88
2023/04/30 01:10:14;;;;;;;6.27;1.70;;;11.20;99.90;;;;;;5055220;28;20446;-88
2023/04/30 01:12:49;;;;;;;1.00;1.00;;;11.20;99.90;;;;;;5054976;28;20470;-88
2023/04/30 01:15:23;;;;;;;2.20;1.37;;;11.20;99.90;;;;;;5055019;28;20473;-89
2023/04/30 01:17:56;;;;;;;1.73;1.30;;;11.20;99.90;;;;;;5055019;28;20487;-88
2023/04/30 01:20:26;;;;;;;1.40;1.30;;;11.20;99.90;;;;;;5055604;28;20469;-88
2023/04/30 01:22:55;;;;;;;1.73;0.90;;;11.10;99.90;;;;;;5054786;28;20469;-88
2023/04/30 01:25:44;;;;;;;2.40;1.57;;;11.10;99.90;;;;;;5055109;28;20489;-88
2023/04/30 01:28:15;;;;;;;1.20;1.10;;;11.10;99.90;;;;;;5055260;28;20530;-88
2023/04/30 01:30:44;;;;;;;3.30;1.43;;;11.20;99.90;;;;;;5054735;28;20431;-88
2023/04/30 01:33:11;;;;;;;2.37;1.23;;;11.10;99.90;;;;;;5054587;28;20442;-88
2023/04/30 01:35:58;;;;;;;4.67;1.27;;;11.10;99.90;;;;;;5054923;28;20450;-88
2023/04/30 01:38:37;;;;;;;3.23;1.07;;;11.00;99.90;;;;;;5055282;28;20438;-88
2023/04/30 01:41:10;;;;;;;2.90;1.60;;;11.00;99.90;;;;;;5055090;28;20488;-88
2023/04/30 01:43:45;;;;;;;1.97;1.50;;;11.00;99.90;;;;;;5053740;28;20791;-88
2023/04/30 01:46:19;;;;;;;1.93;1.47;;;11.00;99.90;;;;;;5054206;28;20438;-88
2023/04/30 01:48:53;;;;;;;3.60;1.83;;;10.90;99.90;;;;;;5055011;28;20760;-88
2023/04/30 01:51:28;;;;;;;2.37;1.50;;;11.00;99.90;;;;;;5054716;28;20468;-88
2023/04/30 01:53:59;;;;;;;4.30;1.60;;;11.00;99.90;;;;;;5054454;28;20832;-88
2023/04/30 01:56:36;;;;;;;5.37;1.67;;;11.00;99.90;;;;;;5054027;28;20944;-88
2023/04/30 01:59:05;;;;;;;1.47;1.20;;;11.00;99.90;;;;;;5054281;28;20442;-88
2023/04/30 02:01:33;;;;;;;0.93;0.80;;;10.90;99.90;;;;;;5053840;28;20578;-88
2023/04/30 02:04:00;;;;;;;2.37;1.43;;;10.90;99.90;;;;;;5054239;28;20456;-88
2023/04/30 02:06:28;;;;;;;4.43;1.83;;;10.90;99.90;;;;;;5053876;28;20501;-88
2023/04/30 02:09:01;;;;;;;1.57;1.30;;;10.90;99.90;;;;;;5053931;28;20542;-88
2023/04/30 02:11:27;;;;;;;8.93;2.40;;;10.90;99.90;;;;;;5053773;28;21060;-83
2023/04/30 02:13:54;;;;;;;2.00;1.10;;;10.90;99.90;;;;;;5053435;28;20497;-83
2023/04/30 02:16:22;;;;;;;3.43;1.83;;;11.00;99.90;;;;;;5053308;28;20953;-83
2023/04/30 02:18:49;;;;;;;1.70;1.57;;;11.00;99.90;;;;;;5053033;28;20995;-83
2023/04/30 02:21:16;;;;;;;2.33;1.57;;;11.00;99.90;;;;;;5053339;28;20557;-83
2023/04/30 02:23:43;;;;;;;2.10;1.33;;;10.90;99.90;;;;;;5053501;28;20486;-83
2023/04/30 02:26:10;;;;;;;1.20;1.03;;;10.90;99.90;;;;;;5053267;28;20458;-83
2023/04/30 02:28:37;;;;;;;1.63;1.30;;;10.90;99.90;;;;;;5052929;28;20942;-83
2023/04/30 02:31:03;;;;;;;2.30;1.57;;;10.90;99.90;;;;;;5053129;28;20471;-83
2023/04/30 02:33:32;;;;;;;1.47;1.30;;;10.90;99.90;;;;;;5053101;28;20446;-83
2023/04/30 02:35:59;;;;;;;3.27;1.53;;;10.80;99.90;;;;;;5052958;28;20450;-83
2023/04/30 02:38:26;;;;;;;3.13;1.80;;;10.80;99.90;;;;;;5053421;28;20455;-83
2023/04/30 02:40:52;;;;;;;4.90;1.90;;;10.80;99.90;;;;;;5052961;28;20491;-83
2023/04/30 02:43:19;;;;;;;3.60;1.50;;;10.80;99.90;;;;;;5053101;28;20454;-83
2023/04/30 02:45:46;;;;;;;2.73;1.27;;;10.80;99.90;;;;;;5053083;28;20452;-83
2023/04/30 02:48:12;;;;;;;5.67;2.33;;;10.80;99.90;;;;;;5053085;28;20450;-83
2023/04/30 02:50:40;;;;;;;6.40;1.47;;;10.80;99.90;;;;;;5052981;28;20443;-83
2023/04/30 02:53:07;;;;;;;4.13;2.37;;;10.70;99.90;;;;;;5052800;28;20435;-83
2023/04/30 02:55:34;;;;;;;3.23;2.33;;;10.70;99.90;;;;;;5056498;28;20486;-83
2023/04/30 02:58:01;;;;;;;4.50;2.40;;;10.70;99.90;;;;;;5056967;28;20442;-83
2023/04/30 03:00:27;;;;;;;1.50;1.37;;;10.60;99.90;;;;;;5056716;28;20450;-83
2023/04/30 03:02:54;;;;;;;3.40;2.47;;;10.60;99.90;;;;;;5056372;28;20470;-83
2023/04/30 03:05:21;;;;;;;3.93;2.03;;;10.60;99.90;;;;;;5057015;28;20458;-83
2023/04/30 03:07:49;;;;;;;2.77;1.13;;;10.60;99.90;;;;;;5056806;28;20454;-83
2023/04/30 03:10:17;;;;;;;3.10;1.50;;;10.60;99.90;;;;;;5056586;28;20813;-83
2023/04/30 03:12:44;;;;;;;4.40;2.03;;;10.60;99.90;;;;;;5056681;28;20551;-83
2023/04/30 03:15:11;;;;;;;4.47;2.17;;;10.60;99.90;;;;;;5056544;28;20489;-83
2023/04/30 03:17:38;;;;;;;4.00;1.87;;;10.60;99.90;;;;;;5056590;28;20450;-83
2023/04/30 03:20:06;;;;;;;3.43;1.63;;;10.60;99.90;;;;;;5056788;28;20442;-83
2023/04/30 03:22:33;;;;;;;2.73;1.80;;;10.50;99.90;;;;;;5056482;28;20505;-83
2023/04/30 03:25:01;;;;;;;4.17;1.20;;;10.50;99.90;;;;;;5056464;28;20473;-83
2023/04/30 03:27:27;;;;;;;3.37;2.40;;;10.50;99.90;;;;;;5056079;28;20457;-83
2023/04/30 03:29:54;;;;;;;3.20;1.37;;;10.50;99.90;;;;;;5056126;28;20430;-83
2023/04/30 03:32:21;;;;;;;2.83;2.03;;;10.50;99.90;;;;;;5056228;28;20470;-83
2023/04/30 03:34:47;;;;;;;3.40;1.67;;;10.50;99.90;;;;;;5055921;28;20997;-83
2023/04/30 03:37:14;;;;;;;7.27;2.50;;;10.40;99.90;;;;;;5056198;28;20454;-83
2023/04/30 03:39:41;;;;;;;2.57;1.70;;;10.40;99.90;;;;;;5056406;28;20458;-83
2023/04/30 03:42:09;;;;;;;3.90;1.77;;;10.50;99.90;;;;;;5056091;28;20474;-83
2023/04/30 03:44:37;;;;;;;2.83;2.20;;;10.40;99.90;;;;;;5056662;28;20451;-87
2023/04/30 03:47:04;;;;;;;6.97;2.10;;;10.40;99.90;;;;;;5056535;28;20452;-87
2023/04/30 03:49:31;;;;;;;7.23;2.70;;;10.40;99.90;;;;;;5056438;28;20500;-87
2023/04/30 03:51:58;;;;;;;3.70;1.80;;;10.40;99.90;;;;;;5056309;28;20466;-87
2023/04/30 03:54:24;;;;;;;3.37;1.50;;;10.40;99.90;;;;;;5056288;28;20501;-87
2023/04/30 03:56:51;;;;;;;5.30;1.87;;;10.40;99.90;;;;;;5056429;28;20960;-87
2023/04/30 03:59:20;;;;;;;4.20;2.67;;;10.40;99.90;;;;;;5055928;28;20430;-87
2023/04/30 04:01:46;;;;;;;3.83;1.83;;;10.30;99.90;;;;;;5055789;28;20482;-87
2023/04/30 04:04:13;;;;;;;2.13;1.80;;;10.30;99.90;;;;;;5056080;28;20447;-87
2023/04/30 04:06:40;;;;;;;4.80;1.63;;;10.30;99.90;;;;;;5055238;28;20946;-87
2023/04/30 04:09:08;;;;;;;3.37;1.70;;;10.40;99.90;;;;;;5056008;28;20892;-87
2023/04/30 04:11:35;;;;;;;4.70;2.27;;;10.30;99.90;;;;;;5056032;28;20467;-87
2023/04/30 04:14:01;;;;;;;3.27;1.80;;;10.30;99.90;;;;;;5055659;28;20937;-87
2023/04/30 04:16:29;;;;;;;2.30;1.53;;;10.30;99.90;;;;;;5056097;28;20455;-87
2023/04/30 04:18:56;;;;;;;1.67;1.50;;;10.30;99.90;;;;;;5055857;28;20446;-87
2023/04/30 04:21:23;;;;;;;6.20;2.73;;;10.30;99.90;;;;;;5055508;28;20462;-87
2023/04/30 04:23:50;;;;;;;6.87;2.30;;;10.30;99.90;;;;;;5055889;28;20454;-86
2023/04/30 04:26:18;;;;;;;2.67;2.47;;;10.30;99.90;;;;;;5055809;28;20446;-87
2023/04/30 04:28:46;;;;;;;4.07;1.73;;;10.30;99.90;;;;;;5055716;28;20450;-87
2023/04/30 04:31:13;;;;;;;7.23;2.50;;;10.30;99.90;;;;;;5055258;28;20849;-83
2023/04/30 04:33:41;;;;;;;3.03;1.93;;;10.30;99.90;;;;;;5055255;28;20430;-83
2023/04/30 04:36:08;;;;;;;1.60;0.90;;;10.30;99.90;;;;;;5055069;28;20522;-84
2023/04/30 04:38:34;;;;;;;4.03;2.03;;;10.30;99.90;;;;;;5055088;28;20450;-84
2023/04/30 04:41:01;;;;;;;3.20;2.00;;;10.30;99.90;;;;;;5055003;28;20840;-83
2023/04/30 04:43:28;;;;;;;2.00;1.37;;;10.30;99.90;;;;;;5055019;28;20446;-83
2023/04/30 04:45:55;;;;;;;6.47;1.83;;;10.30;99.90;;;;;;5054912;28;20441;-84
2023/04/30 04:48:22;;;;;;;5.83;2.40;;;10.40;99.90;;;;;;5055327;28;20888;-83
2023/04/30 04:50:50;;;;;;;4.90;3.97;;;10.40;99.90;;;;;;5054791;28;20446;-83
2023/04/30 04:53:16;;;;;;;2.87;1.60;;;10.40;99.90;;;;;;5054834;28;20453;-83
2023/04/30 04:55:43;;;;;;;3.23;1.20;;;10.40;99.90;;;;;;5054605;28;20489;-83
2023/04/30 04:58:10;;;;;;;4.40;2.67;;;10.40;99.90;;;;;;5054708;28;20447;-83
2023/04/30 05:00:36;;;;;;;4.30;1.70;;;10.40;99.90;;;;;;5054075;28;20803;-83
2023/04/30 05:03:03;;;;;;;2.73;2.03;;;10.40;99.90;;;;;;5054677;28;20438;-83
2023/04/30 05:05:30;;;;;;;3.60;2.23;;;10.50;99.90;;;;;;5054542;28;20446;-83
2023/04/30 05:07:58;;;;;;;2.73;1.60;;;10.50;99.90;;;;;;5054566;28;20449;-83
2023/04/30 05:10:25;;;;;;;5.60;3.47;;;10.60;99.90;;;;;;5054205;28;20962;-83
2023/04/30 05:12:51;;;;;;;3.90;2.03;;;10.70;99.90;;;;;;5054360;28;20479;-83
2023/04/30 05:15:18;;;;;;;3.80;2.13;;;10.80;99.90;;;;;;5054017;28;20486;-83
2023/04/30 05:17:45;;;;;;;4.30;1.87;;;10.80;99.90;;;;;;5054182;28;20446;-83
2023/04/30 05:20:13;;;;;;;2.47;1.43;;;10.80;99.90;;;;;;5054561;28;20455;-83
2023/04/30 05:22:40;;;;;;;4.20;2.27;;;10.80;99.90;;;;;;5054173;28;20488;-83
2023/04/30 05:25:09;;;;;;;4.27;2.17;;;10.90;99.90;;;;;;5053899;28;20938;-83
2023/04/30 05:27:36;;;;;;;3.47;2.50;;;11.00;99.90;;;;;;5054116;28;20458;-83
2023/04/30 05:30:03;;;;;;;4.60;1.93;;;11.10;99.90;;;;;;5054219;28;20454;-83
2023/04/30 05:32:30;;;;;;;3.80;1.50;;;11.30;99.90;;;;;;5054004;28;20470;-83
2023/04/30 05:34:56;;;;;;;4.20;2.40;;;11.40;99.90;;;;;;5053969;28;20489;-83
2023/04/30 05:37:23;;;;;;;5.33;2.37;;;11.50;99.90;;;;;;5053724;28;20439;-83
2023/04/30 05:39:52;;;;;;;2.40;1.73;;;11.50;99.90;;;;;;5054105;28;20450;-83
2023/04/30 05:42:20;;;;;;;4.37;2.80;;;11.60;99.90;;;;;;5053841;28;20935;-83
2023/04/30 05:44:48;;;;;;;7.20;3.10;;;11.70;99.90;;;;;;5053885;28;20496;-83
2023/04/30 05:47:15;;;;;;;2.33;1.63;;;11.80;99.90;;;;;;5053794;28;20462;-83
2023/04/30 05:49:42;;;;;;;4.47;1.93;;;11.90;99.90;;;;;;5053762;28;20446;-83
2023/04/30 05:52:08;;;;;;;2.67;1.93;;;12.00;99.90;;;;;;5053659;28;20466;-83
2023/04/30 05:54:35;;;;;;;3.00;1.30;;;12.10;99.90;;;;;;5053633;28;20454;-83
2023/04/30 05:57:02;;;;;;;4.70;2.47;;;12.20;99.90;;;;;;5053365;28;20974;-84
2023/04/30 05:59:31;;;;;;;2.50;2.03;;;12.20;99.90;;;;;;5053629;28;20462;-83
2023/04/30 06:01:58;;;;;;;3.80;1.63;;;12.20;99.90;;;;;;5053353;28;20482;-83
2023/04/30 06:04:24;;;;;;;6.70;1.90;;;12.20;99.90;;;;;;5053573;28;20465;-83
2023/04/30 06:06:51;;;;;;;1.87;1.50;;;12.50;99.90;;;;;;5053244;28;20961;-84
2023/04/30 06:09:18;;;;;;;7.00;3.30;;;12.80;99.90;;;;;;5053161;28;20969;-83
2023/04/30 06:11:49;;;;;;;5.13;2.30;;;12.90;99.90;;;;;;5053431;28;20463;-83
2023/04/30 06:14:16;;;;;;;3.53;1.67;;;12.90;99.90;;;;;;5053441;28;20533;-83
2023/04/30 06:16:44;;;;;;;4.30;2.33;;;12.90;99.90;;;;;;5053280;28;20492;-83
2023/04/30 06:19:11;;;;;;;3.37;2.90;;;12.80;99.90;;;;;;5053479;28;20465;-83
2023/04/30 06:21:37;;;;;;;4.33;2.10;;;12.70;99.90;;;;;;5052952;28;20474;-83
2023/04/30 06:24:05;;;;;;;6.70;2.50;;;12.60;99.90;;;;;;5053289;28;20454;-84
2023/04/30 06:26:32;;;;;;;3.60;1.80;;;12.50;99.90;;;;;;5053227;28;20533;-83
2023/04/30 06:28:59;;;;;;;4.10;2.00;;;12.60;99.90;;;;;;5052720;28;20447;-83
2023/04/30 06:31:26;;;;;;;1.80;1.57;;;12.60;99.90;;;;;;5053347;28;20474;-83
2023/04/30 06:33:54;;;;;;;2.70;1.80;;;12.50;99.90;;;;;;5053188;28;20457;-83
2023/04/30 06:36:21;;;;;;;4.00;2.10;;;12.40;99.90;;;;;;5053996;28;20466;-83
2023/04/30 06:38:48;;;;;;;6.53;3.10;;;12.30;99.90;;;;;;5052861;28;20458;-83
2023/04/30 06:41:15;;;;;;;3.53;2.10;;;12.30;99.90;;;;;;5052709;28;20918;-83
2023/04/30 06:43:43;;;;;;;6.20;2.17;;;12.40;99.90;;;;;;5052939;28;20435;-84
2023/04/30 06:46:10;;;;;;;3.40;2.07;;;12.60;99.90;;;;;;5053141;28;20434;-83
2023/04/30 06:48:37;;;;;;;3.47;1.97;;;12.60;99.90;;;;;;5053183;28;20439;-83
2023/04/30 06:51:05;;;;;;;3.50;2.43;;;12.80;99.90;;;;;;5053017;28;20475;-83
2023/04/30 06:53:32;;;;;;;4.37;2.17;;;13.00;99.90;;;;;;5053057;28;20446;-82
2023/04/30 06:55:59;;;;;;;3.80;1.87;;;13.00;99.90;;;;;;5052890;28;20497;-83
2023/04/30 06:58:26;;;;;;;2.27;2.03;;;13.20;99.90;;;;;;5052658;28;20541;-84
2023/04/30 07:00:53;;;;;;;8.40;2.70;;;13.40;99.90;;;;;;5052628;28;20485;-83
2023/04/30 07:03:20;;;;;;;2.07;1.80;;;13.60;99.90;;;;;;5052612;28;20453;-83
2023/04/30 07:05:47;;;;;;;3.63;1.97;;;13.80;99.90;;;;;;5052890;28;20500;-83
2023/04/30 07:08:15;;;;;;;4.50;2.10;;;14.00;99.90;;;;;;5052860;28;20458;-83
2023/04/30 07:10:41;;;;;;;2.40;1.93;;;14.40;99.90;;;;;;5052762;28;20462;-83
2023/04/30 07:13:08;;;;;;;3.30;2.23;;;14.80;99.90;;;;;;5053065;28;20457;-83
2023/04/30 07:15:35;;;;;;;2.90;2.50;;;14.80;99.90;;;;;;5052751;28;20513;-84
2023/04/30 07:18:03;;;;;;;3.07;2.03;;;14.70;99.90;;;;;;5052765;28;20459;-84
2023/04/30 07:20:30;;;;;;;4.93;2.43;;;14.50;99.90;;;;;;5052734;28;20808;-83
2023/04/30 07:22:57;;;;;;;5.90;2.80;;;14.30;99.90;;;;;;5052646;28;20470;-84
2023/04/30 07:25:25;;;;;;;6.37;2.10;;;14.30;99.90;;;;;;5052738;28;20456;-83
2023/04/30 07:27:52;;;;;;;2.57;1.90;;;14.30;99.90;;;;;;5052775;28;20442;-83
2023/04/30 07:30:19;;;;;;;6.13;2.80;;;14.40;99.90;;;;;;5052746;28;20473;-84
2023/04/30 07:32:46;;;;;;;3.10;2.50;;;14.60;99.90;;;;;;5052559;28;20847;-83
2023/04/30 07:35:13;;;;;;;2.80;2.33;;;14.90;99.90;;;;;;5052544;28;20782;-84
2023/04/30 07:37:40;;;;;;;5.63;2.30;;;15.50;99.90;;;;;;5052308;28;20450;-83
2023/04/30 07:40:11;;;;;;;1.70;1.60;;;16.40;99.90;;;;;;5052571;28;20964;-83
2023/04/30 07:42:40;;;;;;;3.60;1.80;;;18.00;99.90;;;;;;5056269;28;20901;-83
2023/04/30 07:45:08;;;;;;;3.23;2.67;;;19.30;99.90;;;;;;5056097;28;20455;-84
2023/04/30 07:47:35;;;;;;;2.60;2.40;;;20.70;99.90;;;;;;5055738;28;20855;-83
2023/04/30 07:50:02;;;;;;;2.90;2.60;;;21.70;99.90;;;;;;5056092;28;20442;-83
2023/04/30 07:52:28;;;;;;;1.87;1.77;;;22.60;98.70;;;;;;5055940;28;20556;-84
2023/04/30 07:54:55;;;;;;;2.50;1.97;;;23.30;95.70;;;;;;5055673;28;20941;-83
2023/04/30 07:57:22;;;;;;;5.47;2.40;;;23.90;93.10;;;;;;5055848;28;20485;-83
2023/04/30 07:59:50;;;;;;;5.20;3.50;;;23.90;90.90;;;;;;5055923;28;20214;-91
2023/04/30 08:02:17;;;;;;;5.55;1.98;;;23.90;89.10;;;;;;5056909;28;20235;-92
2023/04/30 08:04:43;;;;;;;2.67;2.17;;;24.20;86.30;;;;;;5056740;28;20202;-93
2023/04/30 08:07:11;;;;;;;2.95;2.28;;;24.80;82.40;;;;;;5057012;28;20207;-93
2023/04/30 08:09:37;;;;;;;2.53;1.73;;;25.00;78.70;;;;;;5056649;28;20211;-91
2023/04/30 08:12:05;;;;;;;2.95;2.65;;;24.70;77.50;;;;;;5056648;28;20601;-91
2023/04/30 08:14:32;;;;;;;2.05;1.95;;;24.30;76.10;;;;;;5057152;28;20203;-91
2023/04/30 08:17:01;;;;;;;1.73;1.63;;;22.70;77.00;;;;;;5056474;28;20212;-93
2023/04/30 08:19:28;;;;;;;2.20;1.60;;;21.20;81.30;;;;;;5056687;28;20458;-92
2023/04/30 08:21:55;;;;;;;1.70;1.60;;;20.40;85.20;;;;;;5056522;28;20839;-91
2023/04/30 08:24:22;;;;;;;2.33;2.10;;;19.50;87.50;;;;;;5056604;28;20445;-91
2023/04/30 08:26:49;;;;;;;3.57;2.57;;;19.20;90.00;;;;;;5056244;28;20938;-91
2023/04/30 08:29:15;;;;;;;1.57;1.47;;;18.70;89.80;;;;;;5056580;28;20450;-92
2023/04/30 08:31:42;;;;;;;2.50;2.10;;;18.30;90.70;;;;;;5056235;28;20473;-92
2023/04/30 08:34:10;;;;;;;1.43;1.33;;;17.60;91.30;;;;;;5056303;28;20454;-91
2023/04/30 08:36:37;;;;;;;2.47;1.80;;;17.30;92.70;;;;;;5055990;28;20474;-92
2023/04/30 08:39:04;;;;;;;3.73;2.40;;;17.20;93.80;;;;;;5056279;28;20450;-91
2023/04/30 08:41:33;;;;;;;2.73;1.83;;;17.20;94.30;;;;;;5056241;28;20466;-91
2023/04/30 08:44:02;;;;;;;2.63;1.60;;;17.20;93.30;;;;;;5056604;28;20472;-91
2023/04/30 08:46:31;;;;;;;2.30;1.83;;;17.10;93.50;;;;;;5056202;28;20469;-92
2023/04/30 08:48:58;;;;;;;2.10;1.70;;;17.10;93.50;;;;;;5055932;28;20430;-92
2023/04/30 08:51:27;;;;;;;2.30;1.60;;;16.70;94.00;;;;;;5055452;28;20471;-91
2023/04/30 08:53:56;;;;;;;2.10;1.50;;;16.50;95.10;;;;;;5056117;28;20938;-91
2023/04/30 08:56:24;;;;;;;4.00;1.57;;;16.40;95.80;;;;;;5055840;28;20478;-90
2023/04/30 08:58:50;;;;;;;2.07;1.47;;;16.40;96.00;;;;;;5055807;28;20451;-90
2023/04/30 09:01:17;;;;;;;2.60;1.30;;;16.50;95.90;;;;;;5054458;28;20884;-90
2023/04/30 09:03:44;;;;;;;1.60;1.50;;;16.50;95.50;;;;;;5055881;28;20446;-90
2023/04/30 09:06:15;;;;;;;2.70;1.30;;;16.30;95.80;;;;;;5056343;28;20448;-90
2023/04/30 09:08:45;;;;;;;5.20;2.03;;;15.80;96.30;;;;;;5055607;28;20431;-90
2023/04/30 09:11:23;;;;;;;2.50;1.50;;;15.70;97.50;;;;;;5055913;28;20961;-90
2023/04/30 09:13:51;;;;;;;1.97;1.43;;;15.50;97.50;;;;;;5055672;28;20446;-90
2023/04/30 09:16:18;;;;;;;3.70;2.03;;;15.60;98.00;;;;;;5055988;28;20478;-90
2023/04/30 09:18:45;;;;;;;2.23;1.60;;;15.60;98.00;;;;;;5055590;28;20446;-94
2023/04/30 09:21:12;;;;;;;2.30;1.73;;;15.60;98.00;;;;;;5055496;28;21046;-91
2023/04/30 09:23:54;;;;;;;1.60;1.40;;;15.50;98.10;;;;;;5055255;28;20476;-92
2023/04/30 09:26:25;;;;;;;0.97;0.87;;;15.40;98.00;;;;;;5054969;28;20956;-91
2023/04/30 09:28:57;;;;;;;1.70;1.57;;;15.30;98.30;;;;;;5055389;28;20895;-91
2023/04/30 09:31:24;;;;;;;1.27;1.17;;;15.30;97.60;;;;;;5055110;28;20873;-90
2023/04/30 09:33:51;;;;;;;2.13;1.30;;;15.30;97.80;;;;;;5055057;28;20807;-91
2023/04/30 09:36:18;;;;;;;2.20;1.73;;;15.30;98.30;;;;;;5055090;28;21001;-91
2023/04/30 09:38:45;;;;;;;3.23;1.40;;;15.50;98.30;;;;;;5055407;28;20442;-91
2023/04/30 09:41:25;;;;;;;1.90;0.97;;;15.70;97.90;;;;;;5054734;28;20475;-89
2023/04/30 09:43:51;;;;;;;2.27;1.87;;;15.70;97.30;;;;;;5054869;28;20449;-90
2023/04/30 09:46:19;;;;;;;2.90;1.13;;;15.60;97.90;;;;;;5054830;28;20803;-90
2023/04/30 09:48:46;;;;;;;2.20;1.07;;;15.60;97.50;;;;;;5054586;28;20443;-89
2023/04/30 09:51:13;;;;;;;2.37;1.37;;;15.50;97.90;;;;;;5054668;28;20482;-89
2023/04/30 09:53:42;;;;;;;2.60;1.17;;;15.60;97.80;;;;;;5054690;28;20474;-91
2023/04/30 09:56:11;;;;;;;1.27;1.17;;;15.70;97.70;;;;;;5054525;28;20462;-90
2023/04/30 09:58:46;;;;;;;2.17;1.27;;;15.80;97.00;;;;;;5054686;28;20454;-89
2023/04/30 10:01:12;;;;;;;0.90;0.90;;;15.70;97.10;;;;;;5054701;28;20477;-89
2023/04/30 10:03:41;;;;;;;2.30;1.63;;;15.60;97.70;;;;;;5053723;28;20449;-90
2023/04/30 10:06:08;;;;;;;1.50;1.10;;;15.60;97.90;;;;;;5054526;28;20485;-90
2023/04/30 10:08:40;;;;;;;2.30;1.60;;;15.70;97.40;;;;;;5054318;28;20809;-89
2023/04/30 10:11:08;;;;;;;2.40;1.57;;;15.80;97.10;;;;;;5054287;28;20477;-89
2023/04/30 10:13:42;;;;;;;2.27;1.37;;;15.70;96.30;;;;;;5054408;28;20442;-89
2023/04/30 10:16:17;;;;;;;1.80;0.90;;;15.70;95.30;;;;;;5054344;28;20446;-88
2023/04/30 10:18:49;;;;;;;1.20;1.10;;;15.80;95.20;;;;;;5054755;28;20454;-89
2023/04/30 10:21:18;;;;;;;1.97;1.30;;;15.80;95.40;;;;;;5054036;28;20466;-90
2023/04/30 10:23:46;;;;;;;1.20;1.07;;;16.00;95.60;;;;;;5053339;28;20457;-82
2023/04/30 10:26:12;;;;;;;1.97;1.40;;;16.20;96.00;;;;;;5053219;28;20454;-83
2023/04/30 10:28:41;;;;;;;1.20;1.10;;;16.20;94.70;;;;;;5053829;28;20457;-83
2023/04/30 10:31:10;;;;;;;2.20;1.23;;;16.10;95.10;;;;;;5053210;28;20462;-84
2023/04/30 10:33:48;;;;;;;1.60;1.50;;;16.10;95.00;;;;;;5053019;28;21025;-84
2023/04/30 10:36:22;;;;;;;1.53;1.07;;;16.10;94.70;;;;;;5053152;28;20500;-83
2023/04/30 10:38:49;;;;;;;1.00;0.87;;;16.10;95.40;;;;;;5053256;28;20431;-83
2023/04/30 10:41:19;;;;;;;3.23;1.80;;;16.10;95.00;;;;;;5053028;28;20821;-83
2023/04/30 10:43:48;;;;;;;1.70;1.10;;;16.00;94.20;;;;;;5053976;28;20442;-85
2023/04/30 10:46:22;;;;;;;2.73;1.13;;;16.10;94.00;;;;;;5053161;28;20488;-85
2023/04/30 10:48:49;;;;;;;1.17;1.10;;;16.10;94.30;;;;;;5053245;28;20430;-86
2023/04/30 10:51:16;;;;;;;1.23;1.07;;;16.00;93.90;;;;;;5053217;28;20843;-86
2023/04/30 10:53:44;;;;;;;1.70;1.57;;;15.90;94.30;;;;;;5053123;28;20898;-85
2023/04/30 10:56:12;;;;;;;1.60;1.33;;;15.80;94.40;;;;;;5053128;28;20471;-86
2023/04/30 10:58:39;;;;;;;1.77;1.40;;;15.90;95.00;;;;;;5053154;28;20537;-86
2023/04/30 11:01:09;;;;;;;1.37;1.23;;;16.00;95.40;;;;;;5052657;28;20989;-86
2023/04/30 11:03:37;;;;;;;1.40;1.30;;;16.00;95.00;;;;;;5052671;28;20538;-83
2023/04/30 11:06:11;;;;;;;1.23;0.97;;;16.10;94.80;;;;;;5052969;28;20572;-83
2023/04/30 11:08:42;;;;;;;1.97;1.40;;;16.00;94.90;;;;;;5053191;28;20430;-84
2023/04/30 11:11:09;;;;;;;1.80;1.63;;;16.00;94.80;;;;;;5053288;28;20459;-86
2023/04/30 11:13:41;;;;;;;2.57;1.30;;;16.10;95.10;;;;;;5053145;28;20818;-86
2023/04/30 11:16:09;;;;;;;2.00;1.67;;;16.10;94.50;;;;;;5055250;28;20450;-82
2023/04/30 11:18:42;;;;;;;2.23;1.53;;;16.10;94.50;;;;;;5056878;28;20465;-83
2023/04/30 11:21:10;;;;;;;5.07;1.23;;;16.20;95.00;;;;;;5056643;28;20463;-83
2023/04/30 11:23:40;;;;;;;1.10;1.00;;;16.20;94.00;;;;;;5056587;28;20451;-83
2023/04/30 11:26:07;;;;;;;1.00;1.00;;;16.30;95.50;;;;;;5056778;28;20450;-82
2023/04/30 11:28:36;;;;;;;1.60;0.77;;;16.40;93.40;;;;;;5056487;28;20458;-83
2023/04/30 11:31:03;;;;;;;1.17;1.03;;;16.60;91.90;;;;;;5056353;28;20557;-83
2023/04/30 11:33:33;;;;;;;1.40;1.00;;;16.50;91.00;;;;;;5056112;28;20929;-83
2023/04/30 11:36:01;;;;;;;1.87;1.10;;;16.50;90.90;;;;;;5056382;28;20454;-85
2023/04/30 11:38:29;;;;;;;1.50;1.17;;;16.50;91.30;;;;;;5056911;28;20482;-85
2023/04/30 11:40:57;;;;;;;0.80;0.80;;;16.50;91.50;;;;;;5056498;28;20959;-86
2023/04/30 11:43:26;;;;;;;1.00;1.00;;;16.50;91.00;;;;;;5056337;28;20477;-87
2023/04/30 11:46:07;;;;;;;1.20;0.90;;;16.50;91.00;;;;;;5056522;28;20480;-89
2023/04/30 11:48:36;;;;;;;1.40;1.00;;;16.60;91.50;;;;;;5056961;28;20434;-89
2023/04/30 11:51:05;;;;;;;1.83;1.10;;;16.70;91.00;;;;;;5056379;28;20973;-83
2023/04/30 11:53:32;;;;;;;2.00;1.20;;;16.70;90.80;;;;;;5055763;28;20455;-84
2023/04/30 11:56:03;;;;;;;2.20;1.47;;;16.60;91.10;;;;;;5055994;28;20442;-86
2023/04/30 11:58:34;;;;;;;1.00;0.90;;;16.50;90.70;;;;;;5056269;28;20516;-85
2023/04/30 12:01:01;;;;;;;1.53;1.23;;;16.50;91.20;;;;;;5055770;28;20563;-86
2023/04/30 12:03:28;;;;;;;1.60;1.50;;;16.60;91.10;;;;;;5055571;28;20549;-86
2023/04/30 12:05:56;;;;;;;1.57;1.27;;;16.50;91.50;;;;;;5055985;28;20443;-86
2023/04/30 12:08:23;;;;;;;1.93;1.23;;;16.50;91.60;;;;;;5055932;28;20525;-87
2023/04/30 12:10:50;;;;;;;3.10;0.90;;;16.50;91.80;;;;;;5055728;28;20533;-86
2023/04/30 12:13:17;;;;;;;1.53;1.03;;;16.40;91.70;;;;;;5055516;28;20450;-86
2023/04/30 12:15:57;;;;;;;1.13;1.03;;;16.40;92.00;;;;;;5055629;28;20810;-83
2023/04/30 12:18:23;;;;;;;2.40;1.30;;;16.40;91.80;;;;;;5055194;28;20981;-83
2023/04/30 12:20:50;;;;;;;1.67;1.40;;;16.40;91.60;;;;;;5055576;28;20450;-87
2023/04/30 12:23:19;;;;;;;1.47;1.30;;;16.40;91.10;;;;;;5055360;28;20867;-87
2023/04/30 12:25:46;;;;;;;1.43;1.30;;;16.40;91.10;;;;;;5055702;28;20450;-87
2023/04/30 12:28:13;;;;;;;1.70;1.17;;;16.30;91.00;;;;;;5055063;28;20501;-87
2023/04/30 12:30:42;;;;;;;2.13;0.90;;;16.30;90.60;;;;;;5055545;28;20443;-87
2023/04/30 12:33:10;;;;;;;1.67;1.30;;;16.40;90.90;;;;;;5055284;28;20958;-86
2023/04/30 12:35:37;;;;;;;1.50;1.40;;;16.60;91.10;;;;;;5055430;28;20521;-86
2023/04/30 12:38:05;;;;;;;1.30;0.77;;;16.70;91.20;;;;;;5055006;28;21017;-86
2023/04/30 12:40:34;;;;;;;2.60;1.40;;;16.50;91.20;;;;;;5055343;28;20446;-86
2023/04/30 12:43:02;;;;;;;0.80;0.80;;;16.50;91.30;;;;;;5055456;28;20466;-87
2023/04/30 12:45:50;;;;;;;1.57;1.00;;;16.50;91.80;;;;;;5055323;28;20446;-88
2023/04/30 12:48:18;;;;;;;2.50;1.40;;;16.50;91.40;;;;;;5055614;28;20434;-85
2023/04/30 12:50:51;;;;;;;1.83;0.80;;;16.50;91.80;;;;;;5055061;28;20454;-88
2023/04/30 12:53:18;;;;;;;1.27;1.17;;;16.60;90.70;;;;;;5055151;28;20442;-85